createdAt,value
2022-11-28T00:02:30.709Z,13.25
2022-11-28T00:05:17.914Z,13.07
2022-11-28T00:08:04.940Z,16.08
2022-11-28T00:10:51.902Z,14.13
2022-11-28T00:13:39.032Z,18.40
2022-11-28T00:16:26.082Z,12.15
2022-11-28T00:19:13.728Z,13.48
2022-11-28T00:22:00.916Z,16.17
2022-11-28T00:24:47.892Z,15.57
2022-11-28T00:27:35.207Z,16.08
2022-11-28T00:30:22.123Z,16.58
2022-11-28T00:33:09.061Z,14.10
2022-11-28T00:36:01.094Z,15.80
2022-11-28T00:38:48.318Z,16.90
2022-11-28T00:41:35.391Z,16.48
2022-11-28T00:44:22.349Z,15.82
2022-11-28T00:47:09.229Z,18.52
2022-11-28T00:49:56.212Z,16.15
2022-11-28T00:52:43.138Z,17.77
2022-11-28T00:55:30.029Z,16.95
2022-11-28T00:58:16.988Z,18.73
2022-11-28T01:01:12.691Z,23.52
2022-11-28T01:04:03.802Z,18.83
2022-11-28T01:06:51.000Z,26.17
2022-11-28T01:09:37.925Z,20.40
2022-11-28T01:12:24.866Z,28.58
2022-11-28T01:15:13.653Z,23.15
2022-11-28T01:18:01.287Z,23.83
2022-11-28T01:20:48.207Z,25.83
2022-11-28T01:23:35.585Z,25.52
2022-11-28T01:26:25.720Z,23.90
2022-11-28T01:29:13.106Z,27.02
2022-11-28T01:32:00.069Z,24.77
2022-11-28T01:34:47.074Z,27.38
2022-11-28T01:37:34.009Z,26.85
2022-11-28T01:40:21.183Z,24.30
2022-11-28T01:43:10.250Z,26.73
2022-11-28T01:45:57.424Z,21.77
2022-11-28T01:48:44.325Z,27.13
2022-11-28T01:51:31.902Z,25.33
2022-11-28T01:54:21.677Z,29.75
2022-11-28T01:57:13.664Z,25.17
2022-11-28T02:00:13.950Z,24.47
2022-11-28T02:03:06.762Z,27.95
2022-11-28T02:05:56.443Z,27.75
2022-11-28T02:08:43.422Z,27.17
2022-11-28T02:12:15.180Z,25.70
2022-11-28T02:15:32.157Z,26.65
2022-11-28T02:18:47.472Z,27.38
2022-11-28T02:22:09.736Z,23.08
2022-11-28T02:25:10.772Z,25.05
2022-11-28T02:28:10.684Z,28.02
2022-11-28T02:32:02.407Z,20.92
2022-11-28T02:35:21.634Z,21.13
2022-11-28T02:38:23.700Z,20.75
2022-11-28T02:41:40.442Z,18.45
2022-11-28T02:44:45.832Z,20.40
2022-11-28T02:47:36.409Z,18.65
2022-11-28T02:50:30.601Z,19.13
2022-11-28T02:53:23.787Z,21.15
2022-11-28T02:56:11.502Z,19.00
2022-11-28T02:58:58.470Z,19.13
2022-11-28T03:01:45.524Z,17.48
2022-11-28T03:05:16.219Z,17.05
2022-11-28T03:08:32.043Z,19.13
2022-11-28T03:11:55.853Z,23.40
2022-11-28T03:14:55.037Z,22.90
2022-11-28T03:17:59.791Z,17.23
2022-11-28T03:20:57.740Z,22.25
2022-11-28T03:24:00.138Z,21.55
2022-11-28T03:27:01.433Z,19.52
2022-11-28T03:29:55.893Z,20.65
2022-11-28T03:32:45.841Z,23.25
2022-11-28T03:35:38.760Z,28.08
2022-11-28T03:41:21.975Z,18.65
2022-11-28T03:44:15.630Z,23.30
2022-11-28T03:47:05.778Z,19.77
2022-11-28T03:49:56.780Z,18.88
2022-11-28T03:52:50.797Z,23.17
2022-11-28T03:55:48.295Z,20.75
2022-11-28T03:58:50.558Z,20.13
2022-11-28T04:02:26.568Z,22.47
2022-11-28T04:05:44.324Z,231.68
2022-11-28T04:08:39.335Z,270.63
2022-11-28T04:11:37.291Z,85.63
2022-11-28T04:14:34.738Z,32.75
2022-11-28T04:17:48.458Z,25.02
2022-11-28T04:20:51.600Z,27.38
2022-11-28T04:26:33.184Z,26.20
2022-11-28T04:29:23.555Z,26.25
2022-11-28T04:32:13.532Z,22.67
2022-11-28T04:35:07.336Z,18.42
2022-11-28T04:37:55.326Z,19.75
2022-11-28T04:41:08.865Z,16.52
2022-11-28T04:44:42.710Z,15.18
2022-11-28T04:47:30.161Z,16.50
2022-11-28T04:50:17.299Z,18.65
2022-11-28T04:53:15.134Z,21.52
2022-11-28T04:56:07.868Z,14.73
2022-11-28T04:58:54.816Z,17.10
2022-11-28T05:01:44.122Z,19.08
2022-11-28T05:04:31.474Z,14.82
2022-11-28T05:07:18.411Z,16.23
2022-11-28T05:10:06.655Z,14.30
2022-11-28T05:12:53.591Z,15.73
2022-11-28T05:15:40.542Z,14.48
2022-11-28T05:18:27.443Z,13.68
2022-11-28T05:21:14.555Z,12.13
2022-11-28T05:24:01.557Z,15.52
2022-11-28T05:26:48.527Z,16.92
2022-11-28T05:29:35.645Z,11.95
2022-11-28T05:32:22.607Z,10.93
2022-11-28T05:35:09.966Z,11.90
2022-11-28T05:37:56.957Z,15.63
2022-11-28T05:40:44.475Z,10.18
2022-11-28T05:43:31.610Z,9.45
2022-11-28T05:46:19.334Z,11.20
2022-11-28T05:49:06.411Z,12.60
2022-11-28T05:51:53.337Z,12.98
2022-11-28T05:54:40.231Z,11.38
2022-11-28T05:57:29.897Z,20.58
2022-11-28T06:00:17.557Z,13.25
2022-11-28T06:03:05.229Z,12.50
2022-11-28T06:05:52.205Z,9.73
2022-11-28T06:08:39.140Z,15.93
2022-11-28T06:11:28.435Z,25.20
2022-11-28T06:14:15.362Z,31.83
2022-11-28T06:17:02.363Z,15.85
2022-11-28T06:19:49.345Z,13.05
2022-11-28T06:22:36.280Z,14.07
2022-11-28T06:25:23.189Z,11.07
2022-11-28T06:28:10.196Z,11.88
2022-11-28T06:30:57.261Z,17.02
2022-11-28T06:33:44.351Z,12.77
2022-11-28T06:36:31.476Z,13.23
2022-11-28T06:39:18.465Z,9.48
2022-11-28T06:42:05.817Z,13.93
2022-11-28T06:44:52.769Z,13.98
2022-11-28T06:47:39.699Z,10.35
2022-11-28T06:50:26.699Z,15.13
2022-11-28T06:53:14.600Z,13.27
2022-11-28T06:56:06.721Z,12.40
2022-11-28T06:58:56.392Z,14.13
2022-11-28T07:01:43.386Z,12.45
2022-11-28T07:04:30.456Z,11.18
2022-11-28T07:07:17.697Z,11.40
2022-11-28T07:10:05.474Z,15.57
2022-11-28T07:12:58.571Z,10.10
2022-11-28T07:15:52.318Z,10.85
2022-11-28T07:18:39.232Z,13.20
2022-11-28T07:21:27.476Z,16.83
2022-11-28T07:24:14.911Z,10.68
2022-11-28T07:27:01.863Z,12.18
2022-11-28T07:29:48.785Z,11.48
2022-11-28T07:32:38.551Z,9.55
2022-11-28T07:35:25.497Z,10.65
2022-11-28T07:38:12.602Z,9.82
2022-11-28T07:41:04.256Z,8.02
2022-11-28T07:43:54.610Z,9.73
2022-11-28T07:46:41.641Z,12.60
2022-11-28T07:49:28.639Z,12.57
2022-11-28T07:52:15.768Z,12.20
2022-11-28T07:55:02.788Z,9.30
2022-11-28T07:57:49.736Z,10.40
2022-11-28T08:00:36.663Z,11.93
2022-11-28T08:03:23.648Z,18.95
2022-11-28T08:06:11.506Z,12.43
2022-11-28T08:09:00.518Z,13.50
2022-11-28T08:11:47.543Z,15.18
2022-11-28T08:14:34.519Z,14.63
2022-11-28T08:17:22.066Z,13.20
2022-11-28T08:20:09.603Z,14.52
2022-11-28T08:22:57.008Z,11.55
2022-11-28T08:25:44.005Z,10.80
2022-11-28T08:28:31.656Z,8.18
2022-11-28T08:31:21.462Z,10.63
2022-11-28T08:34:09.852Z,8.73
2022-11-28T08:36:56.770Z,7.88
2022-11-28T08:39:44.081Z,8.40
2022-11-28T08:42:31.216Z,8.80
2022-11-28T08:45:18.239Z,10.32
2022-11-28T08:48:05.695Z,10.18
2022-11-28T08:50:52.656Z,13.32
2022-11-28T08:53:39.776Z,9.20
2022-11-28T08:56:26.904Z,11.68
2022-11-28T08:59:13.837Z,15.35
2022-11-28T09:02:00.706Z,11.18
2022-11-28T09:04:47.616Z,15.93
2022-11-28T09:07:34.596Z,16.15
2022-11-28T09:10:21.977Z,19.73
2022-11-28T09:13:11.382Z,15.90
2022-11-28T09:15:58.311Z,19.65
2022-11-28T09:18:45.252Z,12.48
2022-11-28T09:21:32.268Z,14.45
2022-11-28T09:24:19.190Z,13.75
2022-11-28T09:27:06.136Z,16.85
2022-11-28T09:29:53.007Z,18.90
2022-11-28T09:32:39.908Z,18.08
2022-11-28T09:35:26.867Z,16.63
2022-11-28T09:38:13.786Z,16.38
2022-11-28T09:41:01.656Z,19.02
2022-11-28T09:43:54.571Z,26.60
2022-11-28T09:46:42.889Z,17.00
2022-11-28T09:49:41.818Z,21.02
2022-11-28T09:52:32.263Z,17.65
2022-11-28T09:55:35.648Z,20.67
2022-11-28T09:58:48.483Z,21.20
2022-11-28T10:01:46.329Z,23.73
2022-11-28T10:04:50.041Z,25.05
2022-11-28T10:08:05.060Z,23.25
2022-11-28T10:11:46.642Z,28.50
2022-11-28T10:15:00.280Z,26.08
2022-11-28T10:18:19.184Z,25.60
2022-11-28T10:21:24.745Z,23.63
2022-11-28T10:24:15.907Z,24.67
2022-11-28T10:27:05.381Z,20.80
2022-11-28T10:30:20.764Z,21.38
2022-11-28T10:33:40.065Z,22.23
2022-11-28T10:36:53.384Z,18.17
2022-11-28T10:42:43.342Z,20.83
2022-11-28T10:46:08.737Z,17.10
2022-11-28T10:49:28.706Z,19.58
2022-11-28T10:52:24.381Z,17.48
2022-11-28T10:55:21.765Z,19.08
2022-11-28T10:58:31.938Z,20.20
2022-11-28T11:01:18.840Z,23.33
2022-11-28T11:04:08.693Z,23.08
2022-11-28T11:07:23.884Z,20.80
2022-11-28T11:10:19.391Z,18.48
2022-11-28T11:13:19.341Z,24.85
2022-11-28T11:16:10.723Z,16.20
2022-11-28T11:18:57.609Z,23.15
2022-11-28T11:21:59.079Z,20.30
2022-11-28T11:25:20.156Z,20.23
2022-11-28T11:28:07.092Z,21.65
2022-11-28T11:31:05.744Z,20.33
2022-11-28T11:34:01.691Z,24.52
2022-11-28T11:36:49.282Z,20.35
2022-11-28T11:39:48.046Z,21.02
2022-11-28T11:42:34.945Z,19.27
2022-11-28T11:45:33.492Z,24.95
2022-11-28T11:48:35.400Z,21.10
2022-11-28T11:51:33.881Z,21.73
2022-11-28T11:54:25.034Z,20.30
2022-11-28T12:00:25.740Z,26.42
2022-11-28T12:03:26.821Z,32.28
2022-11-28T12:06:20.199Z,21.35
2022-11-28T12:09:36.332Z,20.90
2022-11-28T12:12:26.589Z,23.95
2022-11-28T12:15:47.681Z,19.63
2022-11-28T12:19:05.465Z,21.23
2022-11-28T12:22:16.349Z,22.83
2022-11-28T12:25:39.807Z,22.55
2022-11-28T12:29:09.574Z,21.60
2022-11-28T12:32:43.363Z,19.65
2022-11-28T12:35:42.198Z,24.92
2022-11-28T12:38:55.905Z,31.05
2022-11-28T12:42:12.373Z,21.52
2022-11-28T12:45:29.400Z,29.98
2022-11-28T12:49:18.048Z,30.38
2022-11-28T12:52:33.571Z,23.73
2022-11-28T12:55:28.151Z,19.80
2022-11-28T12:58:24.368Z,21.83
2022-11-28T13:01:47.285Z,22.08
2022-11-28T13:05:15.411Z,31.08
2022-11-28T13:08:31.197Z,19.13
2022-11-28T13:11:46.159Z,26.50
2022-11-28T13:14:54.455Z,22.55
2022-11-28T13:18:12.028Z,30.58
2022-11-28T13:21:07.205Z,22.10
2022-11-28T13:24:26.400Z,23.35
2022-11-28T13:27:36.256Z,27.05
2022-11-28T13:30:28.704Z,25.80
2022-11-28T13:33:54.079Z,20.40
2022-11-28T13:40:38.051Z,25.75
2022-11-28T13:44:03.000Z,22.88
2022-11-28T13:46:51.585Z,21.75
2022-11-28T13:49:38.708Z,22.65
2022-11-28T13:52:41.289Z,22.20
2022-11-28T13:55:38.981Z,21.40
2022-11-28T13:58:29.244Z,21.80
2022-11-28T14:01:21.568Z,21.75
2022-11-28T14:04:14.526Z,26.58
2022-11-28T14:10:24.195Z,21.00
2022-11-28T14:13:39.295Z,26.15
2022-11-28T14:16:52.053Z,22.90
2022-11-28T14:20:10.595Z,25.20
2022-11-28T14:23:42.063Z,26.50
2022-11-28T14:26:40.614Z,26.40
2022-11-28T14:29:36.473Z,20.77
2022-11-28T14:32:34.137Z,23.25
2022-11-28T14:36:15.206Z,22.00
2022-11-28T14:39:33.038Z,25.20
2022-11-28T14:45:47.286Z,24.55
2022-11-28T14:48:34.290Z,27.98
2022-11-28T14:52:36.907Z,28.35
2022-11-28T14:55:23.636Z,28.38
2022-11-28T14:58:16.809Z,23.95
2022-11-28T15:01:11.996Z,39.55
2022-11-28T15:04:32.583Z,24.08
2022-11-28T15:07:45.550Z,29.58
2022-11-28T15:11:12.897Z,28.73
2022-11-28T15:14:31.607Z,24.92
2022-11-28T15:17:23.867Z,25.20
2022-11-28T15:20:28.210Z,31.40
2022-11-28T15:23:33.050Z,27.88
2022-11-28T15:26:30.302Z,26.45
2022-11-28T15:29:23.208Z,30.00
2022-11-28T15:35:07.731Z,31.90
2022-11-28T15:37:58.485Z,26.83
2022-11-28T15:40:53.246Z,25.88
2022-11-28T15:43:45.902Z,31.27
2022-11-28T15:46:34.644Z,29.58
2022-11-28T15:49:29.203Z,32.83
2022-11-28T15:52:20.603Z,31.17
2022-11-28T15:55:16.890Z,28.85
2022-11-28T15:58:19.721Z,26.98
2022-11-28T16:01:27.876Z,25.70
2022-11-28T16:04:17.262Z,37.20
2022-11-28T16:07:04.308Z,25.75
2022-11-28T16:09:58.299Z,30.27
2022-11-28T16:12:45.532Z,24.83
2022-11-28T16:15:32.490Z,26.83
2022-11-28T16:18:20.105Z,27.40
2022-11-28T16:21:12.966Z,34.28
2022-11-28T16:24:01.618Z,39.05
2022-11-28T16:26:59.878Z,33.63
2022-11-28T16:29:47.036Z,27.77
2022-11-28T16:32:40.457Z,30.42
2022-11-28T16:35:40.449Z,25.27
2022-11-28T16:38:27.428Z,29.13
2022-11-28T16:41:25.395Z,32.95
2022-11-28T16:44:15.073Z,29.77
2022-11-28T16:47:02.312Z,29.60
2022-11-28T16:50:24.236Z,25.08
2022-11-28T16:53:44.762Z,27.73
2022-11-28T16:56:57.385Z,30.80
2022-11-28T16:59:44.993Z,38.83
2022-11-28T17:02:31.993Z,30.75
2022-11-28T17:05:19.160Z,34.35
2022-11-28T17:08:08.061Z,30.15
2022-11-28T17:10:55.017Z,33.35
2022-11-28T17:13:42.199Z,56.72
2022-11-28T17:16:33.274Z,37.30
2022-11-28T17:19:20.352Z,34.85
2022-11-28T17:22:10.448Z,35.03
2022-11-28T17:25:00.444Z,27.75
2022-11-28T17:27:50.272Z,31.83
2022-11-28T17:30:37.252Z,26.45
2022-11-28T17:33:24.335Z,28.33
2022-11-28T17:36:12.501Z,39.75
2022-11-28T17:39:04.815Z,31.48
2022-11-28T17:41:52.217Z,36.75
2022-11-28T17:44:39.202Z,35.30
2022-11-28T17:47:26.123Z,35.60
2022-11-28T17:50:13.414Z,33.58
2022-11-28T17:53:00.372Z,36.17
2022-11-28T17:55:48.812Z,33.42
2022-11-28T17:58:35.749Z,34.70
2022-11-28T18:01:30.932Z,29.98
2022-11-28T18:04:18.163Z,32.92
2022-11-28T18:07:05.169Z,32.90
2022-11-28T18:09:52.280Z,35.38
2022-11-28T18:12:39.458Z,35.03
2022-11-28T18:15:27.804Z,26.98
2022-11-28T18:18:14.812Z,31.80
2022-11-28T18:21:01.810Z,35.60
2022-11-28T18:23:50.520Z,33.58
2022-11-28T18:26:37.772Z,40.80
2022-11-28T18:29:24.937Z,34.13
2022-11-28T18:32:11.885Z,30.88
2022-11-28T18:34:58.765Z,34.08
2022-11-28T18:37:45.761Z,40.03
2022-11-28T18:40:34.641Z,35.10
2022-11-28T18:43:21.527Z,35.92
2022-11-28T18:46:11.118Z,33.63
2022-11-28T18:48:58.394Z,32.25
2022-11-28T18:51:45.382Z,33.85
2022-11-28T18:54:33.075Z,31.52
2022-11-28T18:57:19.986Z,42.20
2022-11-28T19:00:08.084Z,31.10
2022-11-28T19:02:55.038Z,36.92
2022-11-28T19:05:42.399Z,38.67
2022-11-28T19:08:29.386Z,32.67
2022-11-28T19:11:17.356Z,41.80
2022-11-28T19:14:06.623Z,41.63
2022-11-28T19:16:54.101Z,34.17
2022-11-28T19:19:43.952Z,30.90
2022-11-28T19:22:31.176Z,35.83
2022-11-28T19:25:18.108Z,39.45
2022-11-28T19:28:05.310Z,44.05
2022-11-28T19:30:52.735Z,45.47
2022-11-28T19:33:39.543Z,37.38
2022-11-28T19:36:27.091Z,37.38
2022-11-28T19:39:20.300Z,41.45
2022-11-28T19:42:07.478Z,38.38
2022-11-28T19:44:54.571Z,42.00
2022-11-28T19:47:42.389Z,42.00
2022-11-28T19:50:29.299Z,42.90
2022-11-28T19:53:16.720Z,46.72
2022-11-28T19:56:06.001Z,45.53
2022-11-28T19:58:52.949Z,37.22
2022-11-28T20:01:40.008Z,36.17
2022-11-28T20:04:26.956Z,37.90
2022-11-28T20:07:13.938Z,39.72
2022-11-28T20:10:00.948Z,36.30
2022-11-28T20:12:48.665Z,34.60
2022-11-28T20:15:36.658Z,37.83
2022-11-28T20:18:23.532Z,31.95
2022-11-28T20:21:13.287Z,37.95
2022-11-28T20:24:07.292Z,46.92
2022-11-28T20:26:54.228Z,36.83
2022-11-28T20:29:41.088Z,42.35
2022-11-28T20:32:28.467Z,34.00
2022-11-28T20:35:15.336Z,32.13
2022-11-28T20:38:02.238Z,45.10
2022-11-28T20:40:49.176Z,35.22
2022-11-28T20:43:38.343Z,42.22
2022-11-28T20:46:30.535Z,41.72
2022-11-28T20:49:18.227Z,41.92
2022-11-28T20:52:05.416Z,43.83
2022-11-28T20:54:52.291Z,43.50
2022-11-28T20:57:39.145Z,40.15
2022-11-28T21:00:26.905Z,40.50
2022-11-28T21:03:13.839Z,42.90
2022-11-28T21:06:01.422Z,38.15
2022-11-28T21:08:48.823Z,40.25
2022-11-28T21:11:56.300Z,49.85
2022-11-28T21:14:43.290Z,41.55
2022-11-28T21:17:30.225Z,41.75
2022-11-28T21:20:17.111Z,40.53
2022-11-28T21:23:04.029Z,36.20
2022-11-28T21:25:50.952Z,39.28
2022-11-28T21:28:40.335Z,35.92
2022-11-28T21:31:30.326Z,34.97
2022-11-28T21:34:19.042Z,31.23
2022-11-28T21:37:05.981Z,40.92
2022-11-28T21:39:52.907Z,38.67
2022-11-28T21:42:39.863Z,32.67
2022-11-28T21:45:26.920Z,40.47
2022-11-28T21:48:13.822Z,34.15
2022-11-28T21:51:01.528Z,30.55
2022-11-28T21:53:48.702Z,32.53
2022-11-28T21:56:35.603Z,30.55
2022-11-28T21:59:22.695Z,30.63
2022-11-28T22:02:15.981Z,33.65
2022-11-28T22:05:03.245Z,31.25
2022-11-28T22:07:50.223Z,30.70
2022-11-28T22:10:37.727Z,29.92
2022-11-28T22:13:24.588Z,31.60
2022-11-28T22:16:26.328Z,32.95
2022-11-28T22:19:13.541Z,29.13
2022-11-28T22:22:00.458Z,30.63
2022-11-28T22:24:47.542Z,32.55
2022-11-28T22:27:35.556Z,34.65
2022-11-28T22:30:22.535Z,35.03
2022-11-28T22:33:09.424Z,29.60
2022-11-28T22:36:06.839Z,33.13
2022-11-28T22:38:55.880Z,36.28
2022-11-28T22:41:42.887Z,43.33
2022-11-28T22:44:29.790Z,30.30
2022-11-28T22:47:16.638Z,37.67
2022-11-28T22:50:03.912Z,36.05
2022-11-28T22:52:50.875Z,33.20
2022-11-28T22:55:37.779Z,38.30
2022-11-28T22:58:24.706Z,38.75
2022-11-28T23:01:24.032Z,35.63
2022-11-28T23:04:10.999Z,32.03
2022-11-28T23:06:57.902Z,33.83
2022-11-28T23:09:44.808Z,27.33
2022-11-28T23:12:31.719Z,34.70
2022-11-28T23:15:18.631Z,37.10
2022-11-28T23:18:05.556Z,33.42
2022-11-28T23:20:56.005Z,36.50
2022-11-28T23:23:44.107Z,39.22
2022-11-28T23:26:32.120Z,31.95
2022-11-28T23:29:19.792Z,35.30
2022-11-28T23:32:06.756Z,32.50
2022-11-28T23:34:53.728Z,29.27
2022-11-28T23:37:40.648Z,36.90
2022-11-28T23:40:28.640Z,36.03
2022-11-28T23:43:15.741Z,30.10
2022-11-28T23:46:03.017Z,28.00
2022-11-28T23:48:50.197Z,34.53
2022-11-28T23:51:38.428Z,31.70
2022-11-28T23:54:25.345Z,39.22
2022-11-28T23:57:12.243Z,35.80
